Time;durP1;ratioP1;P1;durP2;ratioP2;P2;SDS_P1;SDS_P2;PMS_P1;PMS_P2;Temp;Humidity;BMP_temperature;BMP_pressure;BME280_temperature;BME280_humidity;BME280_pressure;Samples;Min_cycle;Max_cycle;Signal;HPM_P1;HPM_P2
2023/12/27 00:01:38;;;;;;;1999.90;999.90;;;3.60;99.90;;;;;;5032748;28;20072;-71
2023/12/27 00:04:04;;;;;;;1999.90;999.90;;;3.60;99.90;;;;;;5030252;28;20068;-70
2023/12/27 00:06:30;;;;;;;1999.90;999.90;;;3.50;99.90;;;;;;5022768;28;20033;-71
2023/12/27 00:08:55;;;;;;;1999.90;999.90;;;3.30;99.90;;;;;;5031841;28;20652;-70
2023/12/27 00:11:21;;;;;;;1999.90;999.90;;;3.20;99.90;;;;;;5034559;28;20071;-72
2023/12/27 00:13:47;;;;;;;1999.90;999.90;;;3.10;99.90;;;;;;5033921;28;20459;-70
2023/12/27 00:16:12;;;;;;;1999.90;999.90;;;3.10;99.90;;;;;;5035440;28;20321;-70
2023/12/27 00:18:38;;;;;;;1999.90;999.90;;;3.00;99.90;;;;;;5034083;28;20022;-70
2023/12/27 00:21:04;;;;;;;1999.90;999.90;;;3.00;99.90;;;;;;5033404;28;20101;-70
2023/12/27 00:23:30;;;;;;;1999.90;999.90;;;3.10;99.90;;;;;;5036037;28;20324;-70
2023/12/27 00:25:56;;;;;;;1999.90;999.90;;;3.10;99.90;;;;;;5028803;28;20140;-70
2023/12/27 00:28:22;;;;;;;1999.90;999.90;;;3.10;99.90;;;;;;5031735;28;20325;-70
2023/12/27 00:30:49;;;;;;;1999.90;999.90;;;3.10;99.90;;;;;;5032586;28;20040;-70
2023/12/27 00:33:15;;;;;;;1999.90;999.90;;;3.10;99.90;;;;;;5031317;28;20706;-70
2023/12/27 00:35:41;;;;;;;1999.90;999.90;;;3.20;99.90;;;;;;5031646;28;20435;-70
2023/12/27 00:38:07;;;;;;;1999.90;999.90;;;3.20;99.90;;;;;;5032517;28;20029;-70
2023/12/27 00:40:32;;;;;;;1999.90;999.90;;;3.20;99.90;;;;;;5031386;28;20111;-71
2023/12/27 00:42:58;;;;;;;1999.90;999.90;;;3.20;99.90;;;;;;5032561;28;20314;-71
2023/12/27 00:45:24;;;;;;;1999.90;999.90;;;3.20;99.90;;;;;;5030548;28;20056;-70
2023/12/27 00:47:49;;;;;;;1999.90;999.90;;;3.10;99.90;;;;;;5035271;28;20068;-70
2023/12/27 00:50:16;;;;;;;1999.90;999.90;;;3.10;99.90;;;;;;5035655;28;20026;-70
2023/12/27 00:52:41;;;;;;;1999.90;999.90;;;3.00;99.90;;;;;;5035472;28;20424;-70
2023/12/27 00:55:07;;;;;;;1999.90;999.90;;;3.00;99.90;;;;;;5033480;28;20068;-70
2023/12/27 00:57:33;;;;;;;1999.90;999.90;;;3.00;99.90;;;;;;5035450;28;20108;-70
2023/12/27 00:59:59;;;;;;;1999.90;999.90;;;2.90;99.90;;;;;;5035587;28;20104;-70
2023/12/27 01:02:25;;;;;;;1999.90;999.90;;;2.90;99.90;;;;;;5034957;28;20025;-70
2023/12/27 01:04:53;;;;;;;1999.90;999.90;;;2.90;99.90;;;;;;5034879;28;20678;-70
2023/12/27 01:07:21;;;;;;;1999.90;999.90;;;3.00;99.90;;;;;;5035261;28;20116;-71
2023/12/27 01:09:47;;;;;;;1999.90;999.90;;;2.80;99.90;;;;;;5035328;28;20079;-70
2023/12/27 01:12:13;;;;;;;1999.90;999.90;;;2.80;99.90;;;;;;5033859;28;20029;-70
2023/12/27 01:14:39;;;;;;;1999.90;999.90;;;2.80;99.90;;;;;;5034664;28;20478;-70
2023/12/27 01:17:04;;;;;;;1999.90;999.90;;;2.90;99.90;;;;;;5035285;28;20029;-70
2023/12/27 01:19:31;;;;;;;1999.90;999.90;;;2.90;99.90;;;;;;5035029;28;20064;-70
2023/12/27 01:21:56;;;;;;;1999.90;999.90;;;2.90;99.90;;;;;;5035074;28;20026;-71
2023/12/27 01:24:22;;;;;;;1999.90;999.90;;;3.00;99.90;;;;;;5034310;28;20332;-70
2023/12/27 01:26:48;;;;;;;1999.90;999.90;;;3.10;99.90;;;;;;5034961;28;20032;-70
2023/12/27 01:29:14;;;;;;;1999.90;999.90;;;3.10;99.90;;;;;;5021928;28;20349;-70
2023/12/27 01:31:39;;;;;;;1999.90;999.90;;;3.10;99.90;;;;;;5030891;28;20030;-71
2023/12/27 01:34:05;;;;;;;1999.90;999.90;;;3.10;99.90;;;;;;5022216;28;20025;-70
2023/12/27 01:36:31;;;;;;;1999.90;999.90;;;3.20;99.90;;;;;;5033410;28;20072;-71
2023/12/27 01:38:57;;;;;;;1999.90;999.90;;;3.20;99.90;;;;;;5031310;28;20032;-70
2023/12/27 01:41:22;;;;;;;1999.90;999.90;;;3.20;99.90;;;;;;5034833;28;20332;-71
2023/12/27 01:43:48;;;;;;;1999.90;999.90;;;3.20;99.90;;;;;;5035316;28;20439;-70
2023/12/27 01:46:14;;;;;;;1999.90;999.90;;;3.10;99.90;;;;;;5024338;28;20034;-71
2023/12/27 01:48:41;;;;;;;1999.90;999.90;;;3.10;99.90;;;;;;5029830;28;20527;-70
2023/12/27 01:51:07;;;;;;;;;;;3.00;99.90;;;;;;5029443;28;20029;-70
2023/12/27 01:53:33;;;;;;;1999.90;999.90;;;3.00;99.90;;;;;;5036140;28;20366;-70
2023/12/27 01:56:01;;;;;;;1999.90;999.90;;;3.00;99.90;;;;;;5035017;28;20033;-70
2023/12/27 01:58:27;;;;;;;1999.90;999.90;;;3.00;99.90;;;;;;5023202;28;20032;-70
2023/12/27 02:00:53;;;;;;;1999.90;999.90;;;3.10;99.90;;;;;;5035145;28;20482;-70
2023/12/27 02:03:21;;;;;;;1999.90;999.90;;;3.10;99.90;;;;;;5028930;28;20034;-70
2023/12/27 02:05:48;;;;;;;1999.90;999.90;;;3.20;99.90;;;;;;5034774;28;20593;-70
2023/12/27 02:08:15;;;;;;;1999.90;999.90;;;3.10;99.90;;;;;;5035122;28;20372;-70
2023/12/27 02:10:42;;;;;;;1999.90;999.90;;;3.00;99.90;;;;;;5033936;28;20064;-70
2023/12/27 02:13:08;;;;;;;;;;;3.00;99.90;;;;;;5038182;28;20036;-70
2023/12/27 02:15:35;;;;;;;1999.90;999.90;;;2.90;99.90;;;;;;5031627;28;20224;-70
2023/12/27 02:18:03;;;;;;;1999.90;999.90;;;3.00;99.90;;;;;;5036252;28;20057;-71
2023/12/27 02:20:29;;;;;;;1999.90;999.90;;;2.90;99.90;;;;;;5031994;28;20101;-70
2023/12/27 02:22:57;;;;;;;1999.90;999.90;;;3.00;99.90;;;;;;5030783;28;20030;-71
2023/12/27 02:25:23;;;;;;;1999.90;999.90;;;2.90;99.90;;;;;;5024660;28;20417;-70
2023/12/27 02:27:49;;;;;;;1999.90;999.90;;;2.80;99.90;;;;;;5036386;28;20056;-70
2023/12/27 02:30:19;;;;;;;1999.90;999.90;;;2.70;99.90;;;;;;5034199;28;20406;-70
2023/12/27 02:32:46;;;;;;;1999.90;999.90;;;2.70;99.90;;;;;;5031908;28;20036;-70
2023/12/27 02:35:11;;;;;;;1999.90;999.90;;;2.70;99.90;;;;;;5032205;28;20124;-71
2023/12/27 02:37:37;;;;;;;1999.90;999.90;;;2.70;99.90;;;;;;5033802;28;20115;-70
2023/12/27 02:40:03;;;;;;;1999.90;999.90;;;2.70;99.90;;;;;;5033372;28;20054;-70
2023/12/27 02:42:32;;;;;;;1999.90;999.90;;;2.70;99.90;;;;;;5032667;28;20042;-70
2023/12/27 02:44:58;;;;;;;1999.90;999.90;;;2.70;99.90;;;;;;5031488;28;20041;-70
2023/12/27 02:47:24;;;;;;;1999.90;999.90;;;2.70;99.90;;;;;;5023539;28;20030;-71
2023/12/27 02:49:49;;;;;;;1999.90;999.90;;;2.80;99.90;;;;;;5031482;28;20029;-70
2023/12/27 02:52:15;;;;;;;1999.90;999.90;;;2.80;99.90;;;;;;5032149;28;20029;-71
2023/12/27 02:54:41;;;;;;;1999.90;999.90;;;3.10;99.90;;;;;;5032396;28;20113;-70
2023/12/27 02:57:06;;;;;;;1999.90;999.90;;;3.20;99.90;;;;;;5032776;28;20327;-70
2023/12/27 02:59:32;;;;;;;1999.90;999.90;;;3.30;99.90;;;;;;5033642;28;20072;-70
2023/12/27 03:01:58;;;;;;;1999.90;999.90;;;3.20;99.90;;;;;;5030999;28;20435;-70
2023/12/27 03:04:24;;;;;;;1999.90;999.90;;;3.10;99.90;;;;;;5032191;28;20053;-70
2023/12/27 03:06:50;;;;;;;1999.90;999.90;;;3.10;99.90;;;;;;5026895;28;20029;-70
2023/12/27 03:09:16;;;;;;;1999.90;999.90;;;3.10;99.90;;;;;;5031382;28;20110;-70
2023/12/27 03:11:41;;;;;;;1999.90;999.90;;;3.10;99.90;;;;;;5032330;28;20029;-71
2023/12/27 03:14:07;;;;;;;1999.90;999.90;;;3.30;99.90;;;;;;5032037;28;20421;-70
2023/12/27 03:16:33;;;;;;;1999.90;999.90;;;3.50;99.90;;;;;;5030957;28;20298;-71
2023/12/27 03:18:59;;;;;;;1999.90;999.90;;;3.50;99.90;;;;;;5033261;28;20036;-70
2023/12/27 03:21:25;;;;;;;1999.90;999.90;;;3.70;99.90;;;;;;5032373;28;20028;-70
2023/12/27 03:23:51;;;;;;;1999.90;999.90;;;3.70;99.90;;;;;;5033420;28;20139;-70
2023/12/27 03:26:17;;;;;;;1999.90;999.90;;;3.80;99.90;;;;;;5029467;28;20040;-71
2023/12/27 03:28:43;;;;;;;1999.90;999.90;;;3.90;99.90;;;;;;5032644;28;20061;-70
2023/12/27 03:31:09;;;;;;;1999.90;999.90;;;4.00;99.90;;;;;;5032656;28;20029;-71
2023/12/27 03:33:35;;;;;;;1999.90;999.90;;;4.10;99.90;;;;;;5030430;28;20025;-70
2023/12/27 03:36:01;;;;;;;1999.90;999.90;;;4.10;99.90;;;;;;5028423;28;20459;-70
2023/12/27 03:38:27;;;;;;;1999.90;999.90;;;4.20;99.90;;;;;;5028915;28;20278;-70
2023/12/27 03:40:52;;;;;;;1999.90;999.90;;;4.20;99.90;;;;;;5036492;28;20263;-70
2023/12/27 03:43:18;;;;;;;1999.90;999.90;;;4.30;99.90;;;;;;5031972;28;20360;-70
2023/12/27 03:45:45;;;;;;;1999.90;999.90;;;4.30;99.90;;;;;;5031322;28;20033;-70
2023/12/27 03:48:11;;;;;;;1999.90;999.90;;;4.30;99.90;;;;;;5024268;28;20707;-70
2023/12/27 03:50:37;;;;;;;1999.90;999.90;;;4.30;99.90;;;;;;5024019;28;20043;-70
2023/12/27 03:53:02;;;;;;;1999.90;999.90;;;4.30;99.90;;;;;;5032095;28;20483;-70
2023/12/27 03:55:28;;;;;;;1999.90;999.90;;;4.30;99.90;;;;;;5032078;28;20033;-70
2023/12/27 03:57:54;;;;;;;1999.90;999.90;;;4.30;99.90;;;;;;5031102;28;20033;-70
2023/12/27 04:00:21;;;;;;;1999.90;999.90;;;4.30;99.90;;;;;;5030907;28;20116;-70
2023/12/27 04:02:47;;;;;;;1999.90;999.90;;;4.40;99.90;;;;;;5032126;28;20052;-70
2023/12/27 04:05:13;;;;;;;1999.90;999.90;;;4.40;99.90;;;;;;5030766;28;20041;-70
2023/12/27 04:07:39;;;;;;;1999.90;999.90;;;4.50;99.90;;;;;;5030978;28;20045;-70
2023/12/27 04:10:06;;;;;;;1999.90;999.90;;;4.50;99.90;;;;;;5032273;28;20270;-70
2023/12/27 04:12:31;;;;;;;1999.90;999.90;;;4.60;99.90;;;;;;5030678;28;20034;-71
2023/12/27 04:14:57;;;;;;;1999.90;999.90;;;4.60;99.90;;;;;;5032559;28;20060;-70
2023/12/27 04:17:23;;;;;;;1999.90;999.90;;;4.60;99.90;;;;;;5030998;28;20087;-70
2023/12/27 04:19:49;;;;;;;1999.90;999.90;;;4.50;99.90;;;;;;5032439;28;20117;-70
2023/12/27 04:22:15;;;;;;;1999.90;999.90;;;4.60;99.90;;;;;;5032190;28;20108;-71
2023/12/27 04:24:41;;;;;;;1999.90;999.90;;;4.60;99.90;;;;;;5035390;28;20029;-70
2023/12/27 04:27:06;;;;;;;1999.90;999.90;;;4.70;99.90;;;;;;5035787;28;20038;-70
2023/12/27 04:29:32;;;;;;;1999.90;999.90;;;4.70;99.90;;;;;;5035211;28;20383;-70
2023/12/27 04:31:58;;;;;;;1999.90;999.90;;;4.80;99.90;;;;;;5036388;28;20025;-71
2023/12/27 04:34:23;;;;;;;1999.90;999.90;;;4.80;99.90;;;;;;5035196;28;20075;-70
2023/12/27 04:36:49;;;;;;;1999.90;999.90;;;4.90;99.90;;;;;;5034082;28;20032;-70
2023/12/27 04:39:15;;;;;;;1999.90;999.90;;;5.00;99.90;;;;;;5034610;28;20117;-70
2023/12/27 04:41:41;;;;;;;1999.90;999.90;;;5.00;99.90;;;;;;5034102;28;20079;-70
2023/12/27 04:44:07;;;;;;;1999.90;999.90;;;5.00;99.90;;;;;;5034755;28;20376;-70
2023/12/27 04:46:38;;;;;;;1999.90;999.90;;;5.00;99.90;;;;;;5032426;28;20061;-71
2023/12/27 04:49:08;;;;;;;1999.90;999.90;;;5.00;99.90;;;;;;5035623;28;20045;-70
2023/12/27 04:51:34;;;;;;;1999.90;999.90;;;5.10;99.90;;;;;;5034493;28;20469;-70
2023/12/27 04:54:01;;;;;;;1999.90;999.90;;;5.20;99.90;;;;;;5030675;28;20092;-70
2023/12/27 04:56:28;;;;;;;1999.90;999.90;;;5.20;99.90;;;;;;5031884;28;20116;-71
2023/12/27 04:58:54;;;;;;;1999.90;999.90;;;5.30;99.90;;;;;;5029428;28;20025;-70
2023/12/27 05:01:20;;;;;;;1999.90;999.90;;;5.30;99.90;;;;;;5033149;28;20470;-71
2023/12/27 05:03:45;;;;;;;1999.90;999.90;;;5.30;99.90;;;;;;5032938;28;20057;-70
2023/12/27 05:06:12;;;;;;;1999.90;999.90;;;5.40;99.90;;;;;;5033952;28;20025;-70
2023/12/27 05:08:41;;;;;;;1999.90;999.90;;;5.40;99.90;;;;;;5032992;28;20357;-71
2023/12/27 05:11:14;;;;;;;1999.90;999.90;;;5.40;99.90;;;;;;5035566;28;20026;-71
2023/12/27 05:13:40;;;;;;;1999.90;999.90;;;5.40;99.90;;;;;;5035748;28;20022;-70
2023/12/27 05:16:16;;;;;;;1999.90;999.90;;;5.40;99.90;;;;;;5025949;28;20329;-70
2023/12/27 05:18:43;;;;;;;1999.90;999.90;;;5.40;99.90;;;;;;5032591;28;20025;-71
2023/12/27 05:21:11;;;;;;;1999.90;999.90;;;5.50;99.90;;;;;;5031321;28;20297;-70
2023/12/27 05:23:37;;;;;;;1999.90;999.90;;;5.50;99.90;;;;;;5035606;28;20416;-71
2023/12/27 05:26:04;;;;;;;1999.90;999.90;;;5.50;99.90;;;;;;5033141;28;20053;-70
2023/12/27 05:28:29;;;;;;;1999.90;999.90;;;5.50;99.90;;;;;;5034864;28;20109;-70
2023/12/27 05:30:55;;;;;;;1999.90;999.90;;;5.50;99.90;;;;;;5032006;28;20100;-71
2023/12/27 05:33:23;;;;;;;1999.90;999.90;;;5.50;99.90;;;;;;5028283;28;20071;-71
2023/12/27 05:35:49;;;;;;;1999.90;999.90;;;5.50;99.90;;;;;;5035408;28;20026;-70
2023/12/27 05:38:15;;;;;;;1999.90;999.90;;;5.50;99.90;;;;;;5034441;28;20030;-71
2023/12/27 05:40:40;;;;;;;1999.90;999.90;;;5.50;99.90;;;;;;5035501;28;20748;-71
2023/12/27 05:43:07;;;;;;;1999.90;999.90;;;5.50;99.90;;;;;;5034054;28;20456;-70
2023/12/27 05:45:32;;;;;;;1999.90;999.90;;;5.60;99.90;;;;;;5035425;28;20061;-70
2023/12/27 05:47:58;;;;;;;1999.90;999.90;;;5.60;99.90;;;;;;5034753;28;20071;-71
2023/12/27 05:50:24;;;;;;;1999.90;999.90;;;5.50;99.90;;;;;;5034233;28;20458;-70
2023/12/27 05:52:49;;;;;;;1999.90;999.90;;;5.50;99.90;;;;;;5034864;28;20380;-71
2023/12/27 05:55:16;;;;;;;1999.90;999.90;;;5.50;99.90;;;;;;5034216;28;20031;-70
2023/12/27 05:57:42;;;;;;;1999.90;999.90;;;5.60;99.90;;;;;;5032536;28;20099;-71
2023/12/27 06:00:08;;;;;;;1999.90;999.90;;;5.60;99.90;;;;;;5026609;28;20409;-70
2023/12/27 06:02:33;;;;;;;1999.90;999.90;;;5.60;99.90;;;;;;5034434;28;20037;-71
2023/12/27 06:04:59;;;;;;;1999.90;999.90;;;5.60;99.90;;;;;;5034713;28;20033;-70
2023/12/27 06:07:25;;;;;;;1999.90;999.90;;;5.60;99.90;;;;;;5030308;28;20377;-71
2023/12/27 06:09:51;;;;;;;1999.90;999.90;;;5.60;99.90;;;;;;5034366;28;20278;-71
2023/12/27 06:12:18;;;;;;;1999.90;999.90;;;5.60;99.90;;;;;;5034163;28;20033;-71
2023/12/27 06:14:44;;;;;;;1999.90;999.90;;;5.70;99.90;;;;;;5033405;28;20116;-71
2023/12/27 06:17:09;;;;;;;1999.90;999.90;;;5.70;99.90;;;;;;5032961;28;20029;-71
2023/12/27 06:19:36;;;;;;;1999.90;999.90;;;5.70;99.90;;;;;;5027753;28;20321;-71
2023/12/27 06:22:02;;;;;;;1999.90;999.90;;;5.70;99.90;;;;;;5032799;28;21020;-70
2023/12/27 06:24:29;;;;;;;1999.90;999.90;;;5.70;99.90;;;;;;5028684;28;20029;-71
2023/12/27 06:26:54;;;;;;;1999.90;999.90;;;5.70;99.90;;;;;;5032111;28;20095;-70
2023/12/27 06:29:20;;;;;;;1999.90;999.90;;;5.70;99.90;;;;;;5028405;28;20092;-71
2023/12/27 06:31:46;;;;;;;1999.90;999.90;;;5.70;99.90;;;;;;5028952;28;20435;-71
2023/12/27 06:34:11;;;;;;;1999.90;999.90;;;5.70;99.90;;;;;;5033426;28;20044;-70
2023/12/27 06:36:38;;;;;;;1999.90;999.90;;;5.70;99.90;;;;;;5032455;28;20317;-71
2023/12/27 06:39:06;;;;;;;1999.90;999.90;;;5.80;99.90;;;;;;5023527;28;20018;-71
2023/12/27 06:41:32;;;;;;;1999.90;999.90;;;5.80;99.90;;;;;;5032442;28;20041;-71
2023/12/27 06:43:58;;;;;;;1999.90;999.90;;;5.80;99.90;;;;;;5028938;28;20468;-70
2023/12/27 06:46:24;;;;;;;1999.90;999.90;;;5.80;99.90;;;;;;5032808;28;20044;-71
2023/12/27 06:48:49;;;;;;;1999.90;999.90;;;5.80;99.90;;;;;;5033431;28;20029;-71
2023/12/27 06:51:15;;;;;;;1999.90;999.90;;;5.80;99.90;;;;;;5033653;28;20108;-71
2023/12/27 06:53:41;;;;;;;1999.90;999.90;;;5.90;99.90;;;;;;5032212;28;20125;-71
2023/12/27 06:56:06;;;;;;;1999.90;999.90;;;5.80;99.90;;;;;;5032426;28;20029;-71
2023/12/27 06:58:32;;;;;;;1999.90;999.90;;;5.90;99.90;;;;;;5032534;28;20079;-71
2023/12/27 07:00:58;;;;;;;1999.90;999.90;;;5.80;99.90;;;;;;5033792;28;20766;-71
2023/12/27 07:03:25;;;;;;;1999.90;999.90;;;5.90;99.90;;;;;;5033534;28;20479;-71
2023/12/27 07:05:51;;;;;;;1999.90;999.90;;;5.90;99.90;;;;;;5030480;28;20029;-71
2023/12/27 07:08:16;;;;;;;1999.90;999.90;;;5.90;99.90;;;;;;5028450;28;20443;-71
2023/12/27 07:10:42;;;;;;;1999.90;999.90;;;5.90;99.90;;;;;;5028183;28;20447;-71
2023/12/27 07:13:08;;;;;;;1999.90;999.90;;;5.90;99.90;;;;;;5031155;28;20333;-71
2023/12/27 07:15:35;;;;;;;1999.90;999.90;;;5.90;99.90;;;;;;5038781;28;20091;-71
2023/12/27 07:18:00;;;;;;;1999.90;999.90;;;5.90;99.90;;;;;;5031615;28;20033;-71
2023/12/27 07:20:26;;;;;;;1999.90;999.90;;;5.90;99.90;;;;;;5037160;28;20044;-71
2023/12/27 07:22:52;;;;;;;1999.90;999.90;;;5.90;99.90;;;;;;5029927;28;20048;-71
2023/12/27 07:25:18;;;;;;;1999.90;999.90;;;5.90;99.90;;;;;;5032547;28;20321;-71
2023/12/27 07:27:43;;;;;;;1999.90;999.90;;;5.90;99.90;;;;;;5032669;28;20034;-72
2023/12/27 07:30:09;;;;;;;1999.90;999.90;;;5.90;99.90;;;;;;5031661;28;20029;-71
2023/12/27 07:32:35;;;;;;;1999.90;999.90;;;6.00;99.90;;;;;;5033022;28;20033;-71
2023/12/27 07:35:01;;;;;;;1999.90;999.90;;;6.00;99.90;;;;;;5042209;28;20029;-71
2023/12/27 07:37:27;;;;;;;1999.90;999.90;;;6.00;99.90;;;;;;5030251;28;20109;-71
2023/12/27 07:39:53;;;;;;;1999.90;999.90;;;6.00;99.90;;;;;;5026480;28;20466;-71
2023/12/27 07:42:19;;;;;;;1999.90;999.90;;;6.00;99.90;;;;;;5023362;28;20047;-71
2023/12/27 07:44:45;;;;;;;1999.90;999.90;;;6.00;99.90;;;;;;5026486;28;20021;-71
2023/12/27 07:47:11;;;;;;;1999.90;999.90;;;6.00;99.90;;;;;;5034036;28;20060;-71
2023/12/27 07:49:36;;;;;;;1999.90;999.90;;;6.00;99.90;;;;;;5044530;28;20375;-71
2023/12/27 07:52:03;;;;;;;1999.90;999.90;;;6.10;99.90;;;;;;5029190;28;20029;-71
2023/12/27 07:54:28;;;;;;;1999.90;999.90;;;6.10;99.90;;;;;;5030385;28;20063;-71
2023/12/27 07:56:54;;;;;;;1999.90;999.90;;;6.10;99.90;;;;;;5033982;28;20447;-71
2023/12/27 07:59:20;;;;;;;1999.90;999.90;;;6.10;99.90;;;;;;5035736;28;20021;-71
2023/12/27 08:01:46;;;;;;;1999.90;999.90;;;6.10;99.90;;;;;;5029617;28;20238;-71
2023/12/27 08:04:11;;;;;;;1999.90;999.90;;;6.10;99.90;;;;;;5042694;28;20088;-71
2023/12/27 08:06:37;;;;;;;1999.90;999.90;;;6.10;99.90;;;;;;5026805;28;20057;-72
2023/12/27 08:09:03;;;;;;;1999.90;999.90;;;6.20;99.90;;;;;;5038484;28;20063;-70
2023/12/27 08:11:29;;;;;;;1999.90;999.90;;;6.20;99.90;;;;;;5034460;28;20062;-71
2023/12/27 08:13:55;;;;;;;1999.90;999.90;;;6.20;99.90;;;;;;5035081;28;20033;-72
2023/12/27 08:16:21;;;;;;;1999.90;999.90;;;6.20;99.90;;;;;;5030004;28;20269;-71
2023/12/27 08:18:47;;;;;;;1999.90;999.90;;;6.20;99.90;;;;;;5034399;28;20079;-72
2023/12/27 08:21:13;;;;;;;1999.90;999.90;;;6.20;99.90;;;;;;5031788;28;20057;-71
2023/12/27 08:23:39;;;;;;;1999.90;999.90;;;6.30;99.90;;;;;;5033420;28;20115;-71
2023/12/27 08:26:06;;;;;;;1999.90;999.90;;;6.30;99.90;;;;;;5038229;28;20049;-71
2023/12/27 08:28:36;;;;;;;1999.90;999.90;;;6.30;99.90;;;;;;5038395;28;20029;-71
2023/12/27 08:31:04;;;;;;;1999.90;999.90;;;6.30;99.90;;;;;;5036512;28;20057;-72
2023/12/27 08:33:31;;;;;;;1999.90;999.90;;;6.30;99.90;;;;;;5031301;28;20032;-71
2023/12/27 08:35:59;;;;;;;1999.90;999.90;;;6.30;99.90;;;;;;5036074;28;20033;-72
2023/12/27 08:38:25;;;;;;;1999.90;999.90;;;6.30;99.90;;;;;;5030140;28;20021;-72
2023/12/27 08:40:51;;;;;;;1999.90;999.90;;;6.30;99.90;;;;;;5035741;28;20075;-71
2023/12/27 08:43:21;;;;;;;1999.90;999.90;;;6.40;99.90;;;;;;5035749;28;20041;-71
2023/12/27 08:45:47;;;;;;;1999.90;999.90;;;6.40;99.90;;;;;;5036039;28;20443;-71
2023/12/27 08:48:13;;;;;;;1999.90;999.90;;;6.50;99.90;;;;;;5035884;28;20056;-72
2023/12/27 08:50:40;;;;;;;1999.90;999.90;;;6.50;99.90;;;;;;5036067;28;20061;-72
2023/12/27 08:53:07;;;;;;;1999.90;999.90;;;6.50;99.90;;;;;;5036057;28;20033;-71
2023/12/27 08:55:33;;;;;;;1999.90;999.90;;;6.50;99.90;;;;;;5035268;28;20420;-71
2023/12/27 08:57:58;;;;;;;1999.90;999.90;;;6.60;99.90;;;;;;5032424;28;20103;-71
2023/12/27 09:00:24;;;;;;;1999.90;999.90;;;6.60;99.90;;;;;;5034270;28;20037;-71
2023/12/27 09:02:50;;;;;;;1999.90;999.90;;;6.60;99.90;;;;;;5034734;28;20025;-71
2023/12/27 09:05:15;;;;;;;1999.90;999.90;;;6.70;99.90;;;;;;5034410;28;20033;-72
2023/12/27 09:07:41;;;;;;;1999.90;999.90;;;6.70;99.90;;;;;;5025312;28;20065;-71
2023/12/27 09:10:07;;;;;;;1999.90;999.90;;;6.80;99.90;;;;;;5030611;28;20029;-72
2023/12/27 09:12:33;;;;;;;1999.90;999.90;;;6.80;99.90;;;;;;5027303;28;20033;-71
2023/12/27 09:14:58;;;;;;;1999.90;999.90;;;6.80;99.90;;;;;;5026120;28;20038;-72
2023/12/27 09:17:24;;;;;;;1999.90;999.90;;;6.80;99.90;;;;;;5028161;28;20042;-72
2023/12/27 09:19:50;;;;;;;1999.90;999.90;;;6.80;99.90;;;;;;5030281;28;20044;-71
2023/12/27 09:22:16;;;;;;;1999.90;999.90;;;6.90;99.90;;;;;;5031928;28;20029;-72
2023/12/27 09:24:41;;;;;;;1999.90;999.90;;;6.90;99.90;;;;;;5033026;28;20037;-72
2023/12/27 09:27:07;;;;;;;1999.90;999.90;;;7.00;99.90;;;;;;5031573;28;20030;-72
2023/12/27 09:29:34;;;;;;;1999.90;999.90;;;7.00;99.90;;;;;;5040000;28;20317;-71
2023/12/27 09:31:59;;;;;;;1999.90;999.90;;;7.00;99.90;;;;;;5030848;28;20425;-72
2023/12/27 09:34:25;;;;;;;1999.90;999.90;;;7.00;99.90;;;;;;5027554;28;20029;-72
2023/12/27 09:36:51;;;;;;;1999.90;999.90;;;7.10;99.90;;;;;;5025987;28;20429;-72
2023/12/27 09:39:16;;;;;;;1999.90;999.90;;;7.20;99.90;;;;;;5027203;28;20432;-72
2023/12/27 09:41:43;;;;;;;1999.90;999.90;;;7.20;99.90;;;;;;5032459;28;20049;-72
2023/12/27 09:44:13;;;;;;;1999.90;999.90;;;7.30;99.90;;;;;;5027662;28;20212;-71
2023/12/27 09:46:39;;;;;;;1999.90;999.90;;;7.30;99.90;;;;;;5033414;28;20038;-71
2023/12/27 09:49:07;;;;;;;1999.90;999.90;;;7.30;99.90;;;;;;5025279;28;20032;-72
2023/12/27 09:51:34;;;;;;;1999.90;999.90;;;7.40;99.90;;;;;;5033709;28;20037;-71
2023/12/27 09:53:59;;;;;;;1999.90;999.90;;;7.40;99.90;;;;;;5036020;28;20029;-72
2023/12/27 09:56:27;;;;;;;1999.90;999.90;;;7.50;99.90;;;;;;5030795;28;20414;-72
2023/12/27 09:58:59;;;;;;;1999.90;999.90;;;7.50;99.90;;;;;;5033258;28;20061;-71
2023/12/27 10:01:26;;;;;;;1999.90;999.90;;;7.50;99.90;;;;;;5034281;28;20416;-72
2023/12/27 10:04:08;;;;;;;1999.90;999.90;;;7.60;99.90;;;;;;5033454;28;20386;-72
2023/12/27 10:06:42;;;;;;;1999.90;999.90;;;7.70;99.90;;;;;;5033774;28;20041;-71
2023/12/27 10:09:08;;;;;;;1999.90;999.90;;;7.80;99.90;;;;;;5025094;28;20034;-72
2023/12/27 10:11:35;;;;;;;1999.90;999.90;;;7.80;99.90;;;;;;5031319;28;20032;-71
2023/12/27 10:14:04;;;;;;;1999.90;999.90;;;7.80;99.90;;;;;;5037864;28;20724;-72
2023/12/27 10:16:30;;;;;;;1999.90;999.90;;;7.90;99.90;;;;;;5043238;28;20056;-72
2023/12/27 10:18:57;;;;;;;1999.90;999.90;;;7.80;99.90;;;;;;5036839;28;20498;-71
2023/12/27 10:21:23;;;;;;;1999.90;999.90;;;7.90;99.90;;;;;;5038431;28;20264;-71
2023/12/27 10:23:49;;;;;;;1999.90;999.90;;;7.90;99.90;;;;;;5049370;28;20033;-71
2023/12/27 10:26:14;;;;;;;1999.90;999.90;;;7.90;99.90;;;;;;5034308;28;20021;-71
2023/12/27 10:28:40;;;;;;;1999.90;999.90;;;7.90;99.90;;;;;;5033225;28;20105;-71
2023/12/27 10:31:06;;;;;;;1999.90;999.90;;;7.90;99.90;;;;;;5037567;28;20040;-71
2023/12/27 10:33:43;;;;;;;1999.90;999.90;;;7.90;99.90;;;;;;5025756;28;20136;-71
2023/12/27 10:36:09;;;;;;;;;;;8.00;99.90;;;;;;5032983;28;20026;-72
2023/12/27 10:38:35;;;;;;;1999.90;999.90;;;8.00;99.90;;;;;;5030464;28;19956;-72
2023/12/27 10:41:05;;;;;;;1999.90;999.90;;;8.00;99.90;;;;;;5037245;28;20133;-71
2023/12/27 10:43:32;;;;;;;1999.90;999.90;;;8.10;99.90;;;;;;5033973;28;20115;-72
2023/12/27 10:45:58;;;;;;;1999.90;999.90;;;8.10;99.90;;;;;;5033278;28;20029;-72
2023/12/27 10:48:26;;;;;;;1999.90;999.90;;;8.10;99.90;;;;;;5037449;28;20041;-71
2023/12/27 10:50:52;;;;;;;1999.90;999.90;;;8.20;99.90;;;;;;5035945;28;20431;-72
2023/12/27 10:53:20;;;;;;;1999.90;999.90;;;8.20;99.90;;;;;;5032341;28;20060;-72
2023/12/27 10:55:48;;;;;;;1999.90;999.90;;;8.20;99.90;;;;;;5036020;28;20358;-72
2023/12/27 10:58:22;;;;;;;1999.90;999.90;;;8.20;99.90;;;;;;5030793;28;20025;-71
2023/12/27 11:00:48;;;;;;;1999.90;999.90;;;8.20;99.90;;;;;;5023546;28;20076;-72
2023/12/27 11:03:14;;;;;;;1999.90;999.90;;;8.30;99.90;;;;;;5038022;28;20039;-72
2023/12/27 11:05:41;;;;;;;1999.90;999.90;;;8.30;99.90;;;;;;5037848;28;20025;-71
2023/12/27 11:08:10;;;;;;;1999.90;999.90;;;8.40;99.90;;;;;;5035557;28;20112;-72
2023/12/27 11:10:37;;;;;;;1999.90;999.90;;;8.40;99.90;;;;;;5037683;28;20044;-72
2023/12/27 11:13:10;;;;;;;1999.90;999.90;;;8.40;99.90;;;;;;5040069;28;20298;-71
2023/12/27 11:15:39;;;;;;;1999.90;999.90;;;8.40;99.90;;;;;;5032931;28;20029;-71
2023/12/27 11:18:08;;;;;;;1999.90;999.90;;;8.50;99.90;;;;;;5038984;28;20420;-72
2023/12/27 11:20:35;;;;;;;1999.90;999.90;;;8.50;99.90;;;;;;5028036;28;20583;-71
2023/12/27 11:23:00;;;;;;;;;;;8.50;99.90;;;;;;5043327;28;20030;-71
2023/12/27 11:25:26;;;;;;;1999.90;999.90;;;8.50;99.90;;;;;;5040249;28;19913;-71
2023/12/27 11:27:52;;;;;;;1999.90;999.90;;;8.60;99.90;;;;;;5028765;28;20059;-71
2023/12/27 11:30:21;;;;;;;1999.90;999.90;;;8.50;99.90;;;;;;5035972;28;20037;-71
2023/12/27 11:32:47;;;;;;;1999.90;999.90;;;8.60;99.90;;;;;;5034294;28;20401;-71
2023/12/27 11:35:30;;;;;;;1999.90;999.90;;;8.60;99.90;;;;;;5035883;28;20127;-71
2023/12/27 11:38:18;;;;;;;1999.90;999.90;;;8.60;99.90;;;;;;5032252;28;20028;-71
2023/12/27 11:40:44;;;;;;;1999.90;999.90;;;8.60;99.90;;;;;;5032073;28;20099;-73
2023/12/27 11:43:09;;;;;;;1999.90;999.90;;;8.60;99.90;;;;;;5028392;28;20340;-71
2023/12/27 11:46:04;;;;;;;1999.90;999.90;;;8.60;99.90;;;;;;5031293;28;20025;-71
2023/12/27 11:48:36;;;;;;;1999.90;999.90;;;8.60;99.90;;;;;;5040456;28;20071;-71
2023/12/27 11:51:29;;;;;;;1999.90;999.90;;;8.70;99.90;;;;;;5028382;28;20029;-72
2023/12/27 11:53:55;;;;;;;1999.90;999.90;;;8.80;99.90;;;;;;5035608;28;20021;-71
2023/12/27 11:56:22;;;;;;;1999.90;999.90;;;8.80;99.90;;;;;;5033361;28;20368;-71
2023/12/27 11:58:49;;;;;;;1999.90;999.90;;;8.90;99.90;;;;;;5032720;28;20022;-71
2023/12/27 12:01:25;;;;;;;1999.90;999.90;;;8.90;99.90;;;;;;5030231;28;20029;-71
2023/12/27 12:04:02;;;;;;;1999.90;999.90;;;8.90;99.90;;;;;;5031990;28;20086;-72
2023/12/27 12:06:52;;;;;;;1999.90;999.90;;;8.90;99.90;;;;;;5030838;28;20080;-71
2023/12/27 12:09:20;;;;;;;1999.90;999.90;;;9.00;99.90;;;;;;5036874;28;20689;-71